Главная страница
METAR-TAF:

METAR-TAF

Аэропорты :

Берлевог, Норвегия

широта: 70-52N, долгота: 029-02E, высота над уровнем моря: 1 м

Текущие метеонаблюдения

Эта сводка был подготовлена 30 минут назад, в 10:50 UTC
Ветер 17 Узел от северный
Температура 2°C
Влажность 60%
Давление 1017 hPa
Видимость 10 км и более
Рассеянная облачность на высоте 4400 фута

METAR: ENBV 261050Z 35017KT 9999 SCT29 BKN044 02/M05 Q1017

Время: 13:20 (11:20 UTC)

Прогноз

Эта сводка был подготовлена 3 часа и 20 минут назад, в 08:00 UTC
Прогноз действительный с 26-го 09 UTC до 26-го 12 UTC
Ветер 10 Узел от северный
Видимость 10 км и более
небольшая облачность на высоте 800 фута
Рассеянная облачность на высоте 2000 фута
временами
С 26-го 09 UTC до 26-го 12 UTC
Видимость: 2000 м
на высоте 600 фута
ливневые снегопады

TAF: ENBV 260800Z 2609/2612 36010KT 9999 FEW008 BKN020 TEMPO 2609/2612 2000 SHSN VV006

Метеонаблюдения и прогнозы для более 4000 аэропортов (сводки METAR и TAF).

Имеющиеся станции представлены на карте желтыми и красными точками.

Чтобы увидеть название станции, наведите на нее мышь.

Затем щелкните, чтобы увидеть метеонаблюдения и метеопрогнозы.

Управление картой: чтобы увеличить масштаб, щелкните зеленые кнопки с черным крестиком; чтобы уменьшить масштаб, щелкните зеленую кнопку с тире; для просмотра соседних карт щелкайте зеленые стрелки.


METAR-TAF: